Time;durP1;ratioP1;P1;durP2;ratioP2;P2;SDS_P1;SDS_P2;PMS_P1;PMS_P2;Temp;Humidity;BMP_temperature;BMP_pressure;BME280_temperature;BME280_humidity;BME280_pressure;Samples;Min_cycle;Max_cycle;Signal;HPM_P1;HPM_P2
2022/09/19 00:01:46;;;;;;;13.02;1.75;;;11.50;99.90;;;;;;5091069;28;20089;-54
2022/09/19 00:04:23;;;;;;;;;;;11.50;99.90;;;;;;5078183;28;20079;-52
2022/09/19 00:06:50;;;;;;;8.15;1.05;;;11.50;99.90;;;;;;5072054;28;19916;-57
2022/09/19 00:09:19;;;;;;;13.70;2.05;;;11.50;99.90;;;;;;5090331;28;20039;-55
2022/09/19 00:11:46;;;;;;;13.43;1.17;;;11.60;99.90;;;;;;5080079;28;20078;-53
2022/09/19 00:14:14;;;;;;;15.70;1.27;;;11.60;99.90;;;;;;5070683;28;20040;-54
2022/09/19 00:16:44;;;;;;;15.45;1.35;;;11.50;99.90;;;;;;5071038;28;20070;-54
2022/09/19 00:19:12;;;;;;;11.30;1.33;;;11.60;99.90;;;;;;5088942;28;20040;-55
2022/09/19 00:21:39;;;;;;;10.48;1.27;;;11.60;99.90;;;;;;5094281;28;20044;-55
2022/09/19 00:26:53;;;;;;;13.38;1.02;;;11.60;99.90;;;;;;5074449;28;20044;-53
2022/09/19 00:29:18;;;;;;;7.95;1.25;;;11.60;99.90;;;;;;5084704;28;20051;-54
2022/09/19 00:31:45;;;;;;;11.27;2.15;;;11.60;99.90;;;;;;5091903;28;20040;-53
2022/09/19 00:34:12;;;;;;;7.95;1.08;;;11.60;99.90;;;;;;5080022;28;20052;-55
2022/09/19 00:36:38;;;;;;;8.98;0.77;;;11.60;99.90;;;;;;5073871;28;20399;-56
2022/09/19 00:39:06;;;;;;;9.02;1.27;;;11.60;99.90;;;;;;5101310;28;20040;-53
2022/09/19 00:41:32;;;;;;;3.38;0.85;;;11.60;99.90;;;;;;5103943;28;20031;-57
2022/09/19 00:44:00;;;;;;;10.55;0.90;;;11.60;99.90;;;;;;5096304;28;20401;-52
2022/09/19 00:46:29;;;;;;;14.55;1.48;;;11.60;99.90;;;;;;5089954;28;20072;-53
2022/09/19 00:48:59;;;;;;;10.07;1.13;;;11.60;99.90;;;;;;5082874;28;20084;-54
2022/09/19 00:51:56;;;;;;;15.85;0.98;;;11.60;99.90;;;;;;5080146;28;20048;-52
2022/09/19 00:54:35;;;;;;;6.03;1.10;;;11.60;99.90;;;;;;5105336;28;20047;-55
2022/09/19 00:57:04;;;;;;;10.93;1.02;;;11.70;99.90;;;;;;5080827;28;20036;-52
2022/09/19 00:59:35;;;;;;;5.72;0.90;;;11.70;99.90;;;;;;5103335;28;20165;-55
2022/09/19 01:02:03;;;;;;;7.35;0.70;;;11.70;99.90;;;;;;5085180;28;20526;-55
2022/09/19 01:04:30;;;;;;;5.15;0.50;;;11.60;99.90;;;;;;5108415;28;20404;-53
2022/09/19 01:07:35;;;;;;;6.88;0.90;;;11.60;99.90;;;;;;5078575;28;20051;-52
2022/09/19 01:10:48;;;;;;;8.88;1.65;;;11.60;99.90;;;;;;5102704;28;20040;-52
2022/09/19 01:13:37;;;;;;;8.60;0.85;;;11.60;99.90;;;;;;5053102;28;20051;-52
2022/09/19 01:16:20;;;;;;;8.23;1.25;;;11.60;99.90;;;;;;5080873;28;20092;-55
2022/09/19 01:19:01;;;;;;;7.80;1.63;;;11.50;99.90;;;;;;5103870;28;20043;-52
2022/09/19 01:21:40;;;;;;;6.40;1.05;;;11.60;99.90;;;;;;5084447;28;20401;-53
2022/09/19 01:24:31;;;;;;;8.32;0.95;;;11.50;99.90;;;;;;5085076;28;20480;-52
2022/09/19 01:27:17;;;;;;;3.20;0.65;;;11.50;99.90;;;;;;5101627;28;20043;-54
2022/09/19 01:30:01;;;;;;;4.43;1.05;;;11.40;99.90;;;;;;5101153;28;20048;-55
2022/09/19 01:32:37;;;;;;;9.13;0.95;;;11.50;99.90;;;;;;5077545;28;20048;-53
2022/09/19 01:35:07;;;;;;;5.07;0.90;;;11.40;99.90;;;;;;5100523;28;20035;-52
2022/09/19 01:37:42;;;;;;;6.22;0.75;;;11.40;99.90;;;;;;5091273;28;20444;-52
2022/09/19 01:40:11;;;;;;;9.27;0.77;;;11.40;99.90;;;;;;5079074;28;20115;-53
2022/09/19 01:42:51;;;;;;;5.93;0.70;;;11.40;99.90;;;;;;5091515;28;20037;-52
2022/09/19 01:45:16;;;;;;;10.52;1.17;;;11.40;99.90;;;;;;5085181;28;20050;-52
2022/09/19 01:47:58;;;;;;;9.50;0.53;;;11.40;99.90;;;;;;5092961;28;20044;-55
2022/09/19 01:50:36;;;;;;;12.57;1.05;;;11.40;99.90;;;;;;5080939;28;20497;-56
2022/09/19 01:53:22;;;;;;;13.35;1.38;;;11.40;99.90;;;;;;5073814;28;20443;-53
2022/09/19 01:55:59;;;;;;;8.40;1.25;;;11.40;99.90;;;;;;5072598;28;20506;-57
2022/09/19 01:58:30;;;;;;;;;;;11.50;99.90;;;;;;5073565;28;20448;-54
2022/09/19 02:01:08;;;;;;;8.68;1.00;;;11.50;99.90;;;;;;5073750;28;19940;-54
2022/09/19 02:03:49;;;;;;;7.78;1.73;;;11.50;99.90;;;;;;5073710;28;20060;-53
2022/09/19 02:06:42;;;;;;;6.13;0.70;;;11.40;99.90;;;;;;5072261;28;20032;-54
2022/09/19 02:09:22;;;;;;;12.85;0.93;;;11.40;99.90;;;;;;5071542;28;20078;-53
2022/09/19 02:11:50;;;;;;;11.82;1.48;;;11.40;99.90;;;;;;5078224;28;20040;-52
2022/09/19 02:14:21;;;;;;;6.97;0.82;;;11.40;99.90;;;;;;5095629;28;20047;-54
2022/09/19 02:16:58;;;;;;;11.43;2.38;;;11.40;99.90;;;;;;5085000;28;20501;-56
2022/09/19 02:19:31;;;;;;;7.70;1.05;;;11.40;99.90;;;;;;5091128;28;20035;-56
2022/09/19 02:22:02;;;;;;;10.88;1.15;;;11.40;99.90;;;;;;5099589;28;20047;-56
2022/09/19 02:24:31;;;;;;;11.60;1.48;;;11.40;99.90;;;;;;5081324;28;20131;-54
2022/09/19 02:27:09;;;;;;;9.25;1.17;;;11.40;99.90;;;;;;5091760;28;20044;-56
2022/09/19 02:29:43;;;;;;;13.60;1.20;;;11.40;99.90;;;;;;5094799;28;20035;-53
2022/09/19 02:32:09;;;;;;;15.18;1.83;;;11.40;99.90;;;;;;5074727;28;20178;-55
2022/09/19 02:34:35;;;;;;;8.23;0.90;;;11.40;99.90;;;;;;5079029;28;20122;-52
2022/09/19 02:37:21;;;;;;;14.35;2.72;;;11.50;99.90;;;;;;5100906;28;20032;-52
2022/09/19 02:40:20;;;;;;;9.27;1.75;;;11.50;99.90;;;;;;5085495;28;20051;-53
2022/09/19 02:43:14;;;;;;;14.07;1.60;;;11.50;99.90;;;;;;5101492;28;20039;-53
2022/09/19 02:45:54;;;;;;;12.23;0.82;;;11.50;99.90;;;;;;5089804;28;20045;-53
2022/09/19 02:48:45;;;;;;;12.70;1.77;;;11.50;99.90;;;;;;5112974;28;20100;-55
2022/09/19 02:51:22;;;;;;;9.82;2.22;;;11.40;99.90;;;;;;5079418;28;20044;-54
2022/09/19 02:53:56;;;;;;;11.05;1.98;;;11.40;99.90;;;;;;5092276;28;20039;-53
2022/09/19 02:56:32;;;;;;;12.48;1.48;;;11.40;99.90;;;;;;5087897;28;20036;-53
2022/09/19 02:59:03;;;;;;;16.15;1.48;;;11.40;99.90;;;;;;5112135;28;20043;-55
2022/09/19 03:01:31;;;;;;;15.52;1.48;;;11.40;99.90;;;;;;5096052;28;20088;-52
2022/09/19 03:04:13;;;;;;;15.73;1.60;;;11.40;99.90;;;;;;5082006;28;20044;-53
2022/09/19 03:06:47;;;;;;;14.35;1.35;;;11.40;99.90;;;;;;5100569;28;20040;-55
2022/09/19 03:09:19;;;;;;;10.50;1.35;;;11.40;99.90;;;;;;5096432;28;20085;-53
2022/09/19 03:11:51;;;;;;;13.38;1.38;;;11.50;99.90;;;;;;5087674;28;20041;-56
2022/09/19 03:14:17;;;;;;;18.65;2.13;;;11.50;99.90;;;;;;5083302;28;20036;-52
2022/09/19 03:16:47;;;;;;;12.30;1.92;;;11.50;99.90;;;;;;5083093;28;20051;-53
2022/09/19 03:19:13;;;;;;;8.68;1.23;;;11.50;99.90;;;;;;5075634;28;20058;-55
2022/09/19 03:21:40;;;;;;;16.17;1.75;;;11.50;99.90;;;;;;5092519;28;20040;-54
2022/09/19 03:24:06;;;;;;;13.32;1.20;;;11.50;99.90;;;;;;5090772;28;20562;-52
2022/09/19 03:26:35;;;;;;;24.88;2.33;;;11.50;99.90;;;;;;5084959;28;20086;-53
2022/09/19 03:29:04;;;;;;;7.70;1.05;;;11.50;99.90;;;;;;5091330;28;20044;-56
2022/09/19 03:31:31;;;;;;;20.45;2.42;;;11.50;99.90;;;;;;5098247;28;20044;-53
2022/09/19 03:33:56;;;;;;;11.07;1.40;;;11.40;99.90;;;;;;5084481;28;20032;-52
2022/09/19 03:36:23;;;;;;;10.80;1.87;;;11.40;99.90;;;;;;5096969;28;20169;-53
2022/09/19 03:38:49;;;;;;;8.30;0.93;;;11.40;99.90;;;;;;5092219;28;20058;-52
2022/09/19 03:41:16;;;;;;;15.43;1.37;;;11.30;99.90;;;;;;5094075;28;20477;-54
2022/09/19 03:43:42;;;;;;;12.55;1.70;;;11.40;99.90;;;;;;5099736;28;20270;-53
2022/09/19 03:46:12;;;;;;;8.77;0.80;;;11.30;99.90;;;;;;5072350;28;20063;-56
2022/09/19 03:48:40;;;;;;;11.23;1.23;;;11.30;99.90;;;;;;5070693;28;20036;-53
2022/09/19 03:51:06;;;;;;;19.15;2.28;;;11.30;99.90;;;;;;5070909;28;20036;-54
2022/09/19 03:53:32;;;;;;;8.57;0.95;;;11.30;99.90;;;;;;5079191;28;20040;-57
2022/09/19 03:55:58;;;;;;;15.18;1.58;;;11.30;99.90;;;;;;5090774;28;20091;-56
2022/09/19 03:58:23;;;;;;;7.47;0.60;;;11.30;99.90;;;;;;5089112;28;20036;-53
2022/09/19 04:00:50;;;;;;;9.40;0.73;;;11.30;99.90;;;;;;5086241;28;20063;-52
2022/09/19 04:03:18;;;;;;;16.10;1.40;;;11.30;99.90;;;;;;5070196;28;20141;-56
2022/09/19 04:05:44;;;;;;;11.35;1.33;;;11.30;99.90;;;;;;5069181;28;20547;-53
2022/09/19 04:08:11;;;;;;;15.93;2.33;;;11.30;99.90;;;;;;5071698;28;20477;-55
2022/09/19 04:10:36;;;;;;;;;;;11.30;99.90;;;;;;5070810;28;20037;-54
2022/09/19 04:13:02;;;;;;;13.20;1.92;;;11.30;99.90;;;;;;5077422;28;20014;-57
2022/09/19 04:15:27;;;;;;;11.27;1.30;;;11.40;99.90;;;;;;5101906;28;20416;-52
2022/09/19 04:17:53;;;;;;;9.53;0.67;;;11.30;99.90;;;;;;5099400;28;20036;-56
2022/09/19 04:20:18;;;;;;;9.97;1.00;;;11.30;99.90;;;;;;5094921;28;20653;-53
2022/09/19 04:22:44;;;;;;;13.07;1.43;;;11.30;99.90;;;;;;5085999;28;20047;-56
2022/09/19 04:25:11;;;;;;;7.10;0.70;;;11.20;99.90;;;;;;5077209;28;20104;-53
2022/09/19 04:27:37;;;;;;;10.30;2.03;;;11.20;99.90;;;;;;5094318;28;20285;-56
2022/09/19 04:30:04;;;;;;;9.27;0.90;;;11.20;99.90;;;;;;5072735;28;20036;-55
2022/09/19 04:32:30;;;;;;;9.68;1.08;;;11.10;99.90;;;;;;5097314;28;20460;-56
2022/09/19 04:34:57;;;;;;;9.73;0.82;;;11.10;99.90;;;;;;5069994;28;20179;-57
2022/09/19 04:37:23;;;;;;;9.18;0.80;;;11.10;99.90;;;;;;5084940;28;20081;-53
2022/09/19 04:39:49;;;;;;;10.55;1.73;;;11.00;99.90;;;;;;5079680;28;20455;-58
2022/09/19 04:42:16;;;;;;;15.10;1.83;;;11.00;99.90;;;;;;5091955;28;20042;-56
2022/09/19 04:44:41;;;;;;;8.32;1.08;;;11.10;99.90;;;;;;5104411;28;20075;-56
2022/09/19 04:47:07;;;;;;;6.77;1.13;;;11.00;99.90;;;;;;5101157;28;20480;-56
2022/09/19 04:49:39;;;;;;;9.43;1.17;;;11.00;99.90;;;;;;5092409;28;20100;-57
2022/09/19 04:52:12;;;;;;;15.63;1.25;;;11.00;99.90;;;;;;5077662;28;20040;-58
2022/09/19 04:54:38;;;;;;;9.73;1.58;;;11.00;99.90;;;;;;5083716;28;20044;-55
2022/09/19 04:57:05;;;;;;;12.63;1.30;;;11.10;99.90;;;;;;5087375;28;20085;-58
2022/09/19 04:59:35;;;;;;;6.13;0.82;;;11.10;99.90;;;;;;5095525;28;20032;-56
2022/09/19 05:02:02;;;;;;;12.07;1.10;;;11.10;99.90;;;;;;5090955;28;20040;-55
2022/09/19 05:04:28;;;;;;;6.50;0.95;;;11.10;99.90;;;;;;5097791;28;20048;-57
2022/09/19 05:06:54;;;;;;;13.00;1.83;;;11.10;99.90;;;;;;5088049;28;20039;-55
2022/09/19 05:09:23;;;;;;;14.30;1.70;;;11.20;99.90;;;;;;5073982;28;20454;-56
2022/09/19 05:11:49;;;;;;;15.70;1.93;;;11.20;99.90;;;;;;5098382;28;20039;-55
2022/09/19 05:14:15;;;;;;;9.93;1.13;;;11.20;99.90;;;;;;5078460;28;20032;-55
2022/09/19 05:16:41;;;;;;;10.68;1.83;;;11.20;99.90;;;;;;5090781;28;20024;-56
2022/09/19 05:19:07;;;;;;;8.70;1.20;;;11.30;99.90;;;;;;5114233;28;20040;-54
2022/09/19 05:21:33;;;;;;;14.88;1.02;;;11.30;99.90;;;;;;5092578;28;20047;-55
2022/09/19 05:24:00;;;;;;;9.85;1.00;;;11.30;99.90;;;;;;5092056;28;20401;-53
2022/09/19 05:26:26;;;;;;;9.80;0.98;;;11.30;99.90;;;;;;5101212;28;20063;-57
2022/09/19 05:28:52;;;;;;;12.38;1.55;;;11.30;99.90;;;;;;5073946;28;20224;-56
2022/09/19 05:31:19;;;;;;;14.10;2.23;;;11.30;99.90;;;;;;5076469;28;20666;-54
2022/09/19 05:33:45;;;;;;;15.45;1.67;;;11.40;99.90;;;;;;5089374;28;20314;-59
2022/09/19 05:36:12;;;;;;;15.68;0.90;;;11.40;99.90;;;;;;5091732;28;20031;-59
2022/09/19 05:38:39;;;;;;;15.38;1.27;;;11.40;99.90;;;;;;5086106;28;20052;-56
2022/09/19 05:41:05;;;;;;;12.98;1.90;;;11.40;99.90;;;;;;5073195;28;20041;-56
2022/09/19 05:43:32;;;;;;;9.95;1.77;;;11.40;99.90;;;;;;5074082;28;20032;-54
2022/09/19 05:45:57;;;;;;;13.30;1.88;;;11.40;99.90;;;;;;5089388;28;20040;-56
2022/09/19 05:48:24;;;;;;;13.20;1.55;;;11.50;99.90;;;;;;5073404;28;20044;-58
2022/09/19 05:50:51;;;;;;;12.65;1.25;;;11.50;99.90;;;;;;5083605;28;20047;-56
2022/09/19 05:56:04;;;;;;;16.70;1.17;;;11.50;99.90;;;;;;5099930;28;20044;-52
2022/09/19 05:58:30;;;;;;;8.15;1.20;;;11.50;99.90;;;;;;5104518;28;20031;-52
2022/09/19 06:00:57;;;;;;;14.98;2.03;;;11.50;99.90;;;;;;5089970;28;20044;-52
2022/09/19 06:03:22;;;;;;;;;;;11.60;99.90;;;;;;5074122;28;20040;-52
2022/09/19 06:05:51;;;;;;;19.00;2.50;;;11.60;99.90;;;;;;5072400;28;20388;-53
2022/09/19 06:08:19;;;;;;;14.52;1.85;;;11.60;99.90;;;;;;5075597;28;20129;-53
2022/09/19 06:10:45;;;;;;;9.35;1.02;;;11.60;99.90;;;;;;5093873;28;20119;-53
2022/09/19 06:13:21;;;;;;;;;;;11.70;99.90;;;;;;5072016;28;20055;-53
2022/09/19 06:15:47;;;;;;;8.88;1.48;;;11.70;99.90;;;;;;5073803;28;19923;-53
2022/09/19 06:18:13;;;;;;;17.40;1.65;;;11.70;99.90;;;;;;5075671;28;20123;-52
2022/09/19 06:20:43;;;;;;;15.13;1.10;;;11.70;99.90;;;;;;5075530;28;20119;-56
2022/09/19 06:23:10;;;;;;;10.60;1.67;;;11.70;99.90;;;;;;5099870;28;20093;-55
2022/09/19 06:25:38;;;;;;;10.13;1.98;;;11.70;99.90;;;;;;5083571;28;20041;-57
2022/09/19 06:28:07;;;;;;;15.07;1.63;;;11.80;99.90;;;;;;5076117;28;20045;-55
2022/09/19 06:30:33;;;;;;;8.57;1.13;;;11.80;99.90;;;;;;5073397;28;20456;-57
2022/09/19 06:32:59;;;;;;;10.95;1.45;;;11.80;99.90;;;;;;5088821;28;20500;-56
2022/09/19 06:35:28;;;;;;;13.10;1.23;;;11.90;99.90;;;;;;5088900;28;20089;-57
2022/09/19 06:38:00;;;;;;;16.20;1.58;;;12.00;99.90;;;;;;5081003;28;20119;-56
2022/09/19 06:40:26;;;;;;;9.80;0.95;;;12.10;99.90;;;;;;5107039;28;20040;-56
2022/09/19 06:43:03;;;;;;;14.35;1.13;;;12.20;99.90;;;;;;5076904;28;20294;-58
2022/09/19 06:45:30;;;;;;;9.13;1.20;;;12.30;99.90;;;;;;5071571;28;20044;-58
2022/09/19 06:47:58;;;;;;;8.02;0.85;;;12.40;99.90;;;;;;5095708;28;20104;-57
2022/09/19 06:50:24;;;;;;;13.35;1.73;;;12.60;99.90;;;;;;5078037;28;20040;-57
2022/09/19 06:52:50;;;;;;;8.45;0.80;;;12.80;99.90;;;;;;5089377;28;20033;-56
2022/09/19 06:55:15;;;;;;;6.55;1.25;;;13.00;99.90;;;;;;5071921;28;20090;-56
2022/09/19 06:57:41;;;;;;;11.32;0.95;;;13.10;99.90;;;;;;5075571;28;20048;-57
2022/09/19 07:00:07;;;;;;;22.30;1.93;;;13.30;99.90;;;;;;5090748;28;20036;-54
2022/09/19 07:02:32;;;;;;;7.50;1.00;;;13.30;99.90;;;;;;5090195;28;20036;-56
2022/09/19 07:04:58;;;;;;;13.23;1.33;;;13.30;99.90;;;;;;5091668;28;20044;-52
2022/09/19 07:07:23;;;;;;;11.37;1.43;;;13.40;99.90;;;;;;5085811;28;20028;-57
2022/09/19 07:09:49;;;;;;;10.57;1.52;;;13.40;99.90;;;;;;5112327;28;20047;-56
2022/09/19 07:12:14;;;;;;;11.90;1.63;;;13.30;99.90;;;;;;5076253;28;20282;-53
2022/09/19 07:14:41;;;;;;;20.05;1.73;;;13.30;99.90;;;;;;5092299;28;20468;-52
2022/09/19 07:17:07;;;;;;;;;;;13.20;99.90;;;;;;5093043;28;20520;-52
2022/09/19 07:19:32;;;;;;;12.05;1.10;;;13.10;99.90;;;;;;5108374;28;19916;-52
2022/09/19 07:21:58;;;;;;;13.50;1.43;;;13.10;99.90;;;;;;5089402;28;20055;-54
2022/09/19 07:24:24;;;;;;;13.55;1.23;;;13.10;99.90;;;;;;5078557;28;20037;-58
2022/09/19 07:26:49;;;;;;;7.00;0.68;;;13.00;99.90;;;;;;5086387;28;20047;-52
2022/09/19 07:29:15;;;;;;;7.25;0.90;;;13.10;99.90;;;;;;5083797;28;20036;-53
2022/09/19 07:31:40;;;;;;;11.88;1.30;;;13.20;99.90;;;;;;5085960;28;20169;-53
2022/09/19 07:34:06;;;;;;;12.23;1.10;;;13.40;99.90;;;;;;5098214;28;20036;-58
2022/09/19 07:36:32;;;;;;;17.90;2.80;;;13.50;99.90;;;;;;5102896;28;20038;-52
2022/09/19 07:38:57;;;;;;;12.60;1.10;;;13.60;99.90;;;;;;5095143;27;20119;-52
2022/09/19 07:41:23;;;;;;;8.70;1.30;;;13.70;99.90;;;;;;5077475;28;20045;-53
2022/09/19 07:43:49;;;;;;;8.57;2.10;;;13.80;99.90;;;;;;5090842;28;20281;-57
2022/09/19 07:46:17;;;;;;;14.10;0.98;;;13.80;99.90;;;;;;5084197;28;20036;-57
2022/09/19 07:48:43;;;;;;;12.10;0.90;;;13.80;99.90;;;;;;5084242;28;20028;-59
2022/09/19 07:51:09;;;;;;;7.65;1.15;;;13.90;99.90;;;;;;5085486;28;20077;-58
2022/09/19 07:53:35;;;;;;;8.88;0.65;;;13.90;99.90;;;;;;5103937;28;20031;-56
2022/09/19 07:56:01;;;;;;;8.48;0.70;;;13.90;99.90;;;;;;5095334;28;20135;-57
2022/09/19 07:58:27;;;;;;;15.07;1.50;;;13.90;99.90;;;;;;5089911;28;20032;-55
2022/09/19 08:00:53;;;;;;;11.65;1.52;;;13.90;99.90;;;;;;5089596;28;20261;-56
2022/09/19 08:03:20;;;;;;;10.57;0.98;;;14.10;99.90;;;;;;5074857;28;20058;-55
2022/09/19 08:05:48;;;;;;;6.72;0.70;;;14.20;99.90;;;;;;5070488;28;20040;-54
2022/09/19 08:08:16;;;;;;;11.70;1.27;;;14.40;99.90;;;;;;5082726;28;20036;-56
2022/09/19 08:10:42;;;;;;;14.35;0.98;;;14.50;99.90;;;;;;5088944;28;20484;-57
2022/09/19 08:13:09;;;;;;;;;;;14.60;99.90;;;;;;5090353;28;20047;-56
2022/09/19 08:15:36;;;;;;;9.18;0.75;;;14.60;99.90;;;;;;5086600;28;19916;-55
2022/09/19 08:18:15;;;;;;;9.50;0.80;;;14.60;99.90;;;;;;5070820;28;20041;-58
2022/09/19 08:20:41;;;;;;;6.07;1.23;;;14.60;99.90;;;;;;5085893;28;20083;-53
2022/09/19 08:23:09;;;;;;;6.18;0.63;;;14.70;99.90;;;;;;5087665;28;20378;-56
2022/09/19 08:25:41;;;;;;;8.23;0.82;;;14.70;99.90;;;;;;5090854;28;20100;-57
2022/09/19 08:28:07;;;;;;;8.25;0.93;;;14.80;99.90;;;;;;5090968;28;20046;-57
2022/09/19 08:30:33;;;;;;;11.45;1.75;;;14.90;99.90;;;;;;5093399;28;20032;-57
2022/09/19 08:33:01;;;;;;;10.23;0.70;;;15.10;99.90;;;;;;5071194;28;20051;-54
2022/09/19 08:35:28;;;;;;;8.32;1.02;;;15.30;99.90;;;;;;5077384;28;20047;-55
2022/09/19 08:37:58;;;;;;;9.80;1.40;;;15.50;99.90;;;;;;5071285;28;20102;-57
2022/09/19 08:40:30;;;;;;;8.35;1.23;;;15.60;99.90;;;;;;5092120;28;20337;-53
2022/09/19 08:43:17;;;;;;;10.93;1.77;;;15.60;99.90;;;;;;5080695;28;20047;-57
2022/09/19 08:46:12;;;;;;;10.82;1.17;;;15.70;99.90;;;;;;5094486;28;20040;-52
2022/09/19 08:48:50;;;;;;;17.10;1.58;;;15.70;99.90;;;;;;5069924;28;20105;-59
2022/09/19 08:51:46;;;;;;;7.63;1.20;;;15.70;99.90;;;;;;5070016;28;20585;-57
2022/09/19 08:54:16;;;;;;;11.88;1.23;;;15.80;99.90;;;;;;5070701;28;20082;-58
2022/09/19 08:56:43;;;;;;;8.63;1.30;;;16.10;99.90;;;;;;5069668;28;20044;-59
2022/09/19 08:59:23;;;;;;;8.65;0.95;;;16.20;99.90;;;;;;5070090;28;20047;-57
2022/09/19 09:01:53;;;;;;;7.68;1.23;;;16.30;99.90;;;;;;5071528;28;20516;-60
2022/09/19 09:04:30;;;;;;;14.07;1.23;;;16.50;99.90;;;;;;5070665;28;20048;-59
2022/09/19 09:06:55;;;;;;;;;;;16.70;99.90;;;;;;5082834;28;20444;-57
2022/09/19 09:09:40;;;;;;;11.70;1.40;;;16.80;99.90;;;;;;5069710;28;19924;-59
2022/09/19 09:12:27;;;;;;;14.70;1.60;;;17.00;99.90;;;;;;5071360;28;20044;-57
2022/09/19 09:15:08;;;;;;;;;;;17.10;99.90;;;;;;5069991;28;20048;-60
2022/09/19 09:17:47;;;;;;;8.43;1.15;;;17.30;99.90;;;;;;5069481;28;19924;-57
2022/09/19 09:20:40;;;;;;;14.48;1.13;;;17.50;99.90;;;;;;5070270;28;20045;-58
2022/09/19 09:23:15;;;;;;;10.48;0.98;;;17.60;99.90;;;;;;5088937;28;20381;-59
2022/09/19 09:25:48;;;;;;;11.18;0.80;;;17.80;99.90;;;;;;5088033;28;20119;-58
2022/09/19 09:28:48;;;;;;;7.05;1.17;;;17.80;99.90;;;;;;5090283;28;20052;-58
2022/09/19 09:31:15;;;;;;;15.75;1.73;;;17.90;99.90;;;;;;5088144;28;20097;-58
2022/09/19 09:33:50;;;;;;;11.40;0.90;;;17.80;99.90;;;;;;5089662;28;20039;-58
2022/09/19 09:36:23;;;;;;;12.05;1.92;;;17.80;99.90;;;;;;5087739;28;20043;-60
2022/09/19 09:38:59;;;;;;;11.15;1.48;;;17.70;99.90;;;;;;5073940;28;20043;-58
2022/09/19 09:41:50;;;;;;;9.07;1.23;;;17.60;99.90;;;;;;5077436;28;20086;-57
2022/09/19 09:44:27;;;;;;;9.88;1.42;;;17.60;99.90;;;;;;5089217;28;20408;-56
2022/09/19 09:47:43;;;;;;;15.18;1.17;;;17.70;99.90;;;;;;5088512;28;20051;-55
2022/09/19 09:50:39;;;;;;;12.32;1.05;;;17.90;99.90;;;;;;5089818;28;20052;-58
2022/09/19 09:53:14;;;;;;;10.25;1.13;;;18.10;99.90;;;;;;5072406;28;20040;-56
2022/09/19 09:58:38;;;;;;;6.18;0.80;;;18.40;99.90;;;;;;5090472;28;20489;-58
2022/09/19 10:04:24;;;;;;;6.88;0.98;;;18.50;99.90;;;;;;5092164;28;20040;-55
2022/09/19 10:07:12;;;;;;;8.18;0.75;;;18.20;99.90;;;;;;5074099;28;20116;-56
2022/09/19 10:09:43;;;;;;;5.93;1.05;;;17.90;99.90;;;;;;5083880;28;20032;-57
2022/09/19 10:12:32;;;;;;;13.77;1.42;;;17.70;99.90;;;;;;5091115;28;20058;-60
2022/09/19 10:15:02;;;;;;;7.25;0.68;;;17.50;99.90;;;;;;5093024;28;20109;-58
2022/09/19 10:17:33;;;;;;;6.15;0.90;;;17.40;99.90;;;;;;5091171;28;20074;-60
2022/09/19 10:20:03;;;;;;;6.80;0.82;;;17.30;99.90;;;;;;5092214;28;20043;-57
2022/09/19 10:22:29;;;;;;;6.35;0.85;;;17.20;99.90;;;;;;5088794;28;20036;-56
2022/09/19 10:24:59;;;;;;;6.00;0.70;;;17.20;99.90;;;;;;5091109;28;20589;-58
2022/09/19 10:27:26;;;;;;;5.65;1.08;;;17.20;99.90;;;;;;5074073;28;20083;-58
2022/09/19 10:29:55;;;;;;;7.45;0.65;;;17.30;99.90;;;;;;5073428;28;20055;-59
2022/09/19 10:32:24;;;;;;;7.55;0.80;;;17.40;99.90;;;;;;5073803;28;20481;-58
2022/09/19 10:34:50;;;;;;;7.20;0.90;;;17.50;99.90;;;;;;5072113;28;20463;-60
2022/09/19 10:37:18;;;;;;;7.63;1.05;;;17.50;99.90;;;;;;5073445;28;20029;-59
2022/09/19 10:39:48;;;;;;;3.90;0.60;;;17.60;99.90;;;;;;5073438;28;20036;-59
2022/09/19 10:42:37;;;;;;;11.00;0.47;;;17.70;99.90;;;;;;5088210;28;20051;-58
2022/09/19 10:45:16;;;;;;;8.75;1.00;;;17.90;99.90;;;;;;5090956;28;20362;-58
2022/09/19 10:47:42;;;;;;;9.50;1.27;;;18.20;99.90;;;;;;5072370;28;20047;-58
2022/09/19 10:50:17;;;;;;;4.90;0.88;;;18.40;99.90;;;;;;5072252;28;20048;-57
2022/09/19 10:52:44;;;;;;;8.45;1.17;;;18.60;99.90;;;;;;5085539;28;20059;-58
2022/09/19 10:55:22;;;;;;;8.95;1.33;;;18.80;99.90;;;;;;5089949;28;20036;-57
2022/09/19 10:57:59;;;;;;;8.77;0.88;;;18.90;99.90;;;;;;5071340;28;20044;-60
2022/09/19 11:00:30;;;;;;;9.30;1.33;;;19.00;99.80;;;;;;5073147;28;20085;-58
2022/09/19 11:03:05;;;;;;;12.15;0.57;;;18.90;99.40;;;;;;5072585;28;20048;-57
2022/09/19 11:05:34;;;;;;;12.18;1.25;;;18.60;99.10;;;;;;5072212;28;20393;-57
2022/09/19 11:08:00;;;;;;;6.53;1.00;;;18.30;98.70;;;;;;5083789;28;20044;-60
2022/09/19 11:10:38;;;;;;;10.05;0.98;;;18.00;98.80;;;;;;5090049;28;20493;-58
2022/09/19 11:13:13;;;;;;;7.07;0.63;;;17.70;99.00;;;;;;5078333;28;20170;-56
2022/09/19 11:15:55;;;;;;;4.77;0.67;;;17.50;98.90;;;;;;5071694;28;20033;-57
2022/09/19 11:18:53;;;;;;;6.55;0.60;;;17.30;99.40;;;;;;5081110;28;20028;-59
2022/09/19 11:21:49;;;;;;;1.38;0.20;;;17.20;99.20;;;;;;5077792;28;20049;-59
2022/09/19 11:24:30;;;;;;;1.33;0.20;;;17.10;98.60;;;;;;5070987;28;20037;-60
2022/09/19 11:27:17;;;;;;;2.83;0.35;;;17.00;98.60;;;;;;5079436;28;20040;-58
2022/09/19 11:29:57;;;;;;;2.00;0.25;;;16.90;98.10;;;;;;5088396;28;20074;-56
2022/09/19 11:32:32;;;;;;;6.40;0.63;;;16.90;98.20;;;;;;5076901;28;20321;-58
2022/09/19 11:35:23;;;;;;;3.33;0.38;;;17.00;98.50;;;;;;5085337;28;20040;-57
2022/09/19 11:38:15;;;;;;;6.05;0.43;;;17.20;98.90;;;;;;5069928;28;20040;-57
2022/09/19 11:41:11;;;;;;;6.60;0.88;;;17.50;98.70;;;;;;5087615;28;20036;-58
2022/09/19 11:43:45;;;;;;;7.90;1.27;;;17.70;98.30;;;;;;5081064;28;20043;-58
2022/09/19 11:46:32;;;;;;;5.22;0.90;;;17.90;98.80;;;;;;5091586;28;20047;-55
2022/09/19 11:49:04;;;;;;;;;;;18.20;99.00;;;;;;5071660;28;20076;-59
2022/09/19 11:51:32;;;;;;;4.45;0.50;;;18.30;97.20;;;;;;5069528;28;19917;-57
2022/09/19 11:54:40;;;;;;;5.93;0.70;;;18.40;97.70;;;;;;5070247;28;20536;-60
2022/09/19 11:57:16;;;;;;;;;;;18.50;97.80;;;;;;5038368;28;20060;-58
2022/09/19 11:59:45;;;;;;;6.43;0.70;;;18.60;98.40;;;;;;5079297;28;19947;-59
2022/09/19 12:02:34;;;;;;;8.13;1.00;;;18.80;98.40;;;;;;5090681;28;20143;-59
2022/09/19 12:05:17;;;;;;;5.43;0.80;;;18.90;97.90;;;;;;5090647;28;20467;-56
2022/09/19 12:07:54;;;;;;;11.98;1.58;;;18.80;97.20;;;;;;5091087;28;20131;-58
2022/09/19 12:10:29;;;;;;;8.20;1.05;;;18.90;97.20;;;;;;5089919;28;20048;-57
2022/09/19 12:13:05;;;;;;;8.77;1.17;;;18.80;97.20;;;;;;5090831;28;20071;-58
2022/09/19 12:15:35;;;;;;;7.77;0.70;;;18.80;96.90;;;;;;5071534;28;20060;-57
2022/09/19 12:18:22;;;;;;;8.80;0.90;;;18.80;97.30;;;;;;5078330;28;20369;-57
2022/09/19 12:20:53;;;;;;;5.32;0.63;;;18.70;97.20;;;;;;5086293;28;20048;-58
2022/09/19 12:26:21;;;;;;;14.15;1.55;;;18.00;98.30;;;;;;5074944;28;20048;-59
2022/09/19 12:28:54;;;;;;;4.65;0.80;;;17.40;99.10;;;;;;5075733;28;20032;-57
2022/09/19 12:31:25;;;;;;;4.97;0.95;;;16.90;99.80;;;;;;5085685;28;20081;-56
2022/09/19 12:33:56;;;;;;;4.68;0.57;;;16.50;99.90;;;;;;5101882;28;20039;-57
2022/09/19 12:36:36;;;;;;;7.95;0.73;;;16.10;99.90;;;;;;5094454;28;20247;-54
2022/09/19 12:39:10;;;;;;;10.20;1.30;;;15.70;99.90;;;;;;5070219;28;20429;-57
2022/09/19 12:42:03;;;;;;;5.90;0.57;;;15.40;99.90;;;;;;5051659;28;20040;-56
2022/09/19 12:45:04;;;;;;;4.95;1.60;;;15.10;99.90;;;;;;5074592;28;20039;-57
2022/09/19 12:47:39;;;;;;;3.67;0.40;;;14.90;99.90;;;;;;5029522;28;20510;-57
2022/09/19 12:50:31;;;;;;;7.10;0.88;;;14.80;99.90;;;;;;5029073;28;20053;-54
2022/09/19 12:53:13;;;;;;;4.88;0.82;;;14.60;99.90;;;;;;5046705;28;20045;-57
2022/09/19 12:56:00;;;;;;;3.90;0.45;;;14.60;99.90;;;;;;5046907;28;20037;-56
2022/09/19 12:58:37;;;;;;;2.47;0.38;;;14.60;99.90;;;;;;5046888;28;20167;-56
2022/09/19 13:01:37;;;;;;;4.45;0.52;;;14.80;99.90;;;;;;5040574;28;20049;-58
2022/09/19 13:04:21;;;;;;;2.22;0.40;;;14.90;99.90;;;;;;5026950;28;20060;-58
2022/09/19 13:06:50;;;;;;;6.50;0.95;;;15.20;99.90;;;;;;5032822;28;20425;-56
2022/09/19 13:09:57;;;;;;;2.63;0.40;;;15.60;99.90;;;;;;5029560;28;20106;-57
2022/09/19 13:12:50;;;;;;;3.58;0.50;;;15.90;99.90;;;;;;5027090;28;20065;-58
2022/09/19 13:15:19;;;;;;;3.17;0.32;;;16.30;99.90;;;;;;5034495;28;20037;-59
2022/09/19 13:23:38;;;;;;;3.95;1.00;;;16.80;99.90;;;;;;5055622;28;19934;-58
2022/09/19 13:26:25;;;;;;;5.65;0.80;;;17.00;99.90;;;;;;5090725;28;20054;-59
2022/09/19 13:28:55;;;;;;;4.25;1.25;;;17.10;99.90;;;;;;5080027;28;20071;-59
2022/09/19 13:31:55;;;;;;;8.20;0.60;;;17.10;99.90;;;;;;5075268;28;20052;-58
2022/09/19 13:35:00;;;;;;;10.50;1.30;;;17.00;99.90;;;;;;5104349;28;20116;-59
2022/09/19 13:37:29;;;;;;;6.65;0.52;;;17.10;99.90;;;;;;5100032;28;20033;-58